createdAt,value
2023-03-20T00:01:21.849Z,100543.41
2023-03-20T00:03:49.109Z,100550.81
2023-03-20T00:06:24.435Z,100552.72
2023-03-20T00:08:55.094Z,100580.22
2023-03-20T00:11:30.961Z,100574.34
2023-03-20T00:14:06.533Z,100570.06
2023-03-20T00:16:36.276Z,100557.81
2023-03-20T00:19:04.336Z,100578.81
2023-03-20T00:21:31.806Z,100536.00
2023-03-20T00:23:58.760Z,100527.38
2023-03-20T00:26:28.401Z,100567.22
2023-03-20T00:28:56.515Z,100543.50
2023-03-20T00:31:29.063Z,100568.81
2023-03-20T00:34:05.509Z,100561.97
2023-03-20T00:36:32.852Z,100560.09
2023-03-20T00:38:59.738Z,100544.03
2023-03-20T00:41:30.268Z,100510.69
2023-03-20T00:44:03.483Z,100538.09
2023-03-20T00:46:38.530Z,100557.34
2023-03-20T00:49:06.450Z,100561.09
2023-03-20T00:51:33.122Z,100518.69
2023-03-20T00:54:00.152Z,100540.84
2023-03-20T00:56:36.680Z,100527.88
2023-03-20T00:59:04.380Z,100522.81
2023-03-20T01:01:32.373Z,100524.69
2023-03-20T01:04:00.371Z,100537.53
2023-03-20T01:06:28.955Z,100526.38
2023-03-20T01:08:57.800Z,100516.88
2023-03-20T01:11:24.979Z,100519.63
2023-03-20T01:13:52.586Z,100489.97
2023-03-20T01:16:24.834Z,100533.19
2023-03-20T01:18:52.174Z,100487.94
2023-03-20T01:21:21.047Z,100523.06
2023-03-20T01:23:48.915Z,100506.88
2023-03-20T01:26:37.293Z,100499.91
2023-03-20T01:29:20.697Z,100523.81
2023-03-20T01:31:47.714Z,100529.72
2023-03-20T01:34:16.499Z,100506.13
2023-03-20T01:36:51.253Z,100519.59
2023-03-20T01:39:19.320Z,100501.78
2023-03-20T01:41:47.295Z,100499.84
2023-03-20T01:44:27.414Z,100517.00
2023-03-20T01:46:55.680Z,100518.06
2023-03-20T01:49:22.337Z,100523.41
2023-03-20T01:51:50.808Z,100519.34
2023-03-20T01:54:19.869Z,100513.44
2023-03-20T01:56:52.021Z,100498.09
2023-03-20T01:59:27.125Z,100511.28
2023-03-20T02:01:54.488Z,100504.84
2023-03-20T02:04:28.567Z,100499.66
2023-03-20T02:06:55.906Z,100506.56
2023-03-20T02:09:22.578Z,100482.72
2023-03-20T02:11:50.112Z,100504.16
2023-03-20T02:14:16.979Z,100493.38
2023-03-20T02:16:43.716Z,100484.09
2023-03-20T02:19:21.031Z,100474.66
2023-03-20T02:22:16.238Z,100507.31
2023-03-20T02:24:51.875Z,100503.25
2023-03-20T02:27:23.978Z,100475.06
2023-03-20T02:30:18.498Z,100502.44
2023-03-20T02:33:15.433Z,100501.69
2023-03-20T02:36:33.995Z,100499.22
2023-03-20T02:39:45.705Z,100506.22
2023-03-20T02:42:19.883Z,100437.09
2023-03-20T02:45:08.324Z,100477.38
2023-03-20T02:47:48.551Z,100491.97
2023-03-20T02:50:39.792Z,100494.69
2023-03-20T02:53:43.275Z,100476.81
2023-03-20T02:56:13.006Z,100487.97
2023-03-20T02:59:14.977Z,100448.72
2023-03-20T03:01:46.512Z,100455.59
2023-03-20T03:04:19.146Z,100454.00
2023-03-20T03:06:50.145Z,100484.94
2023-03-20T03:09:20.114Z,100484.88
2023-03-20T03:11:54.517Z,100480.78
2023-03-20T03:14:27.229Z,100488.56
2023-03-20T03:16:55.765Z,100456.97
2023-03-20T03:19:26.511Z,100486.47
2023-03-20T03:21:53.541Z,100494.41
2023-03-20T03:24:42.692Z,100468.81
2023-03-20T03:27:24.247Z,100486.88
2023-03-20T03:29:55.708Z,100463.69
2023-03-20T03:32:33.522Z,100499.63
2023-03-20T03:35:02.797Z,100478.41
2023-03-20T03:37:29.447Z,100498.09
2023-03-20T03:40:11.963Z,100462.19
2023-03-20T03:42:53.004Z,100461.47
2023-03-20T03:45:33.772Z,100499.31
2023-03-20T03:48:11.808Z,100504.53
2023-03-20T03:50:57.631Z,100492.53
2023-03-20T03:53:31.853Z,100456.69
2023-03-20T03:56:05.097Z,100493.44
2023-03-20T03:58:35.411Z,100505.13
2023-03-20T04:01:05.398Z,100506.16
2023-03-20T04:03:38.151Z,100484.09
2023-03-20T04:06:07.068Z,100475.66
2023-03-20T04:08:34.671Z,100506.41
2023-03-20T04:11:01.706Z,100438.84
2023-03-20T04:13:28.373Z,100459.47
2023-03-20T04:15:55.034Z,100470.66
2023-03-20T04:18:21.823Z,100463.81
2023-03-20T04:20:48.539Z,100487.94
2023-03-20T04:23:15.809Z,100495.59
2023-03-20T04:25:42.511Z,100475.88
2023-03-20T04:28:09.324Z,100483.69
2023-03-20T04:30:36.018Z,100490.63
2023-03-20T04:33:02.791Z,100492.31
2023-03-20T04:35:29.437Z,100487.19
2023-03-20T04:37:56.222Z,100507.78
2023-03-20T04:40:23.002Z,100506.97
2023-03-20T04:42:49.645Z,100500.06
2023-03-20T04:45:16.454Z,100476.88
2023-03-20T04:47:43.169Z,100472.69
2023-03-20T04:50:10.491Z,100494.06
2023-03-20T04:52:37.166Z,100454.78
2023-03-20T04:55:04.125Z,100455.84
2023-03-20T04:57:32.377Z,100503.06
2023-03-20T04:59:59.092Z,100504.09
2023-03-20T05:02:25.902Z,100509.06
2023-03-20T05:04:52.748Z,100519.25
2023-03-20T05:07:19.436Z,100487.59
2023-03-20T05:09:46.157Z,100485.00
2023-03-20T05:12:12.844Z,100494.50
2023-03-20T05:14:39.566Z,100506.53
2023-03-20T05:17:06.500Z,100504.81
2023-03-20T05:19:33.195Z,100500.63
2023-03-20T05:21:59.850Z,100479.41
2023-03-20T05:24:27.660Z,100490.34
2023-03-20T05:26:54.407Z,100513.63
2023-03-20T05:29:21.133Z,100454.56
2023-03-20T05:31:47.965Z,100469.28
2023-03-20T05:34:14.688Z,100482.28
2023-03-20T05:36:41.481Z,100486.53
2023-03-20T05:39:08.129Z,100472.72
2023-03-20T05:41:34.892Z,100478.97
2023-03-20T05:44:01.578Z,100529.56
2023-03-20T05:46:28.310Z,100523.56
2023-03-20T05:48:55.005Z,100465.31
2023-03-20T05:51:22.085Z,100514.81
2023-03-20T05:53:48.789Z,100532.91
2023-03-20T05:56:15.444Z,100507.88
2023-03-20T05:58:42.444Z,100497.47
2023-03-20T06:01:09.242Z,100534.94
2023-03-20T06:03:37.090Z,100540.06
2023-03-20T06:06:04.682Z,100519.44
2023-03-20T06:08:31.425Z,100498.09
2023-03-20T06:10:58.069Z,100488.31
2023-03-20T06:13:24.754Z,100510.47
2023-03-20T06:15:51.509Z,100527.44
2023-03-20T06:18:18.262Z,100533.59
2023-03-20T06:20:44.895Z,100508.03
2023-03-20T06:23:12.078Z,100482.53
2023-03-20T06:25:38.889Z,100513.38
2023-03-20T06:28:05.895Z,100521.53
2023-03-20T06:30:32.650Z,100512.75
2023-03-20T06:32:59.401Z,100522.44
2023-03-20T06:35:30.819Z,100530.19
2023-03-20T06:37:58.484Z,100513.03
2023-03-20T06:40:27.493Z,100555.88
2023-03-20T06:42:55.605Z,100540.66
2023-03-20T06:45:22.999Z,100541.13
2023-03-20T06:47:49.656Z,100536.78
2023-03-20T06:50:16.730Z,100519.47
2023-03-20T06:52:43.529Z,100540.09
2023-03-20T06:55:10.593Z,100552.97
2023-03-20T06:57:37.461Z,100556.22
2023-03-20T07:00:05.777Z,100542.31
2023-03-20T07:02:32.576Z,100524.16
2023-03-20T07:04:59.591Z,100550.66
2023-03-20T07:07:26.337Z,100553.16
2023-03-20T07:09:53.002Z,100529.81
2023-03-20T07:12:24.374Z,100543.34
2023-03-20T07:14:51.389Z,100532.81
2023-03-20T07:17:18.069Z,100534.78
2023-03-20T07:19:44.794Z,100513.03
2023-03-20T07:22:21.873Z,100525.69
2023-03-20T07:24:49.109Z,100513.91
2023-03-20T07:27:15.780Z,100530.88
2023-03-20T07:29:42.461Z,100524.25
2023-03-20T07:32:09.440Z,100577.25
2023-03-20T07:34:36.581Z,100553.97
2023-03-20T07:37:04.790Z,100561.34
2023-03-20T07:39:32.289Z,100559.50
2023-03-20T07:42:00.434Z,100523.91
2023-03-20T07:44:27.201Z,100558.66
2023-03-20T07:46:53.896Z,100544.88
2023-03-20T07:49:21.150Z,100558.88
2023-03-20T07:51:49.352Z,100564.88
2023-03-20T07:54:16.567Z,100533.69
2023-03-20T07:56:43.311Z,100526.75
2023-03-20T07:59:10.054Z,100551.72
2023-03-20T08:01:36.854Z,100487.94
2023-03-20T08:04:03.886Z,100555.91
2023-03-20T08:06:30.922Z,100545.44
2023-03-20T08:08:57.861Z,100528.50
2023-03-20T08:11:24.525Z,100516.53
2023-03-20T08:13:51.221Z,100555.00
2023-03-20T08:16:17.973Z,100540.34
2023-03-20T08:18:44.860Z,100565.03
2023-03-20T08:21:11.601Z,100550.88
2023-03-20T08:23:38.288Z,100550.50
2023-03-20T08:26:05.091Z,100537.75
2023-03-20T08:28:46.670Z,100583.50
2023-03-20T08:31:15.186Z,100570.25
2023-03-20T08:33:41.928Z,100562.91
2023-03-20T08:36:08.909Z,100572.13
2023-03-20T08:38:36.001Z,100571.38
2023-03-20T08:41:03.238Z,100561.47
2023-03-20T08:43:30.015Z,100541.97
2023-03-20T08:45:56.859Z,100549.91
2023-03-20T08:48:23.592Z,100565.72
2023-03-20T08:50:50.539Z,100585.63
2023-03-20T08:53:17.244Z,100526.56
2023-03-20T08:55:51.752Z,100595.53
2023-03-20T08:58:20.001Z,100603.88
2023-03-20T09:00:47.041Z,100579.13
2023-03-20T09:03:19.918Z,100575.22
2023-03-20T09:05:48.106Z,100592.22
2023-03-20T09:08:15.918Z,100596.13
2023-03-20T09:10:42.902Z,100562.78
2023-03-20T09:13:25.801Z,100597.53
2023-03-20T09:15:54.257Z,100577.66
2023-03-20T09:18:21.622Z,100567.13
2023-03-20T09:20:49.251Z,100579.66
2023-03-20T09:23:16.621Z,100590.56
2023-03-20T09:25:43.494Z,100567.00
2023-03-20T09:28:10.482Z,100570.34
2023-03-20T09:30:37.726Z,100585.53
2023-03-20T09:33:04.839Z,100569.56
2023-03-20T09:35:32.005Z,100592.31
2023-03-20T09:37:58.757Z,100583.56
2023-03-20T09:40:31.793Z,100590.47
2023-03-20T09:43:22.662Z,100568.69
2023-03-20T09:46:08.589Z,100593.47
2023-03-20T09:48:54.651Z,100571.16
2023-03-20T09:51:41.169Z,100557.13
2023-03-20T09:54:19.831Z,100562.41
2023-03-20T09:56:46.779Z,100564.59
2023-03-20T09:59:16.615Z,100597.94
2023-03-20T10:01:57.380Z,100576.56
2023-03-20T10:04:29.749Z,100596.31
2023-03-20T10:06:57.029Z,100573.13
2023-03-20T10:09:29.080Z,100592.56
2023-03-20T10:12:22.845Z,100602.63
2023-03-20T10:14:49.503Z,100601.13
2023-03-20T10:17:42.490Z,100564.84
2023-03-20T10:20:35.513Z,100602.28
2023-03-20T10:23:06.929Z,100603.50
2023-03-20T10:25:46.636Z,100597.53
2023-03-20T10:28:24.586Z,100591.94
2023-03-20T10:31:17.120Z,100598.56
2023-03-20T10:34:05.116Z,100594.84
2023-03-20T10:36:56.472Z,100577.59
2023-03-20T10:39:50.508Z,100594.56
2023-03-20T10:42:26.233Z,100599.09
2023-03-20T10:44:59.489Z,100551.50
2023-03-20T10:47:31.318Z,100577.53
2023-03-20T10:50:03.824Z,100583.47
2023-03-20T10:52:38.420Z,100597.63
2023-03-20T10:55:11.676Z,100582.53
2023-03-20T10:57:42.336Z,100601.44
2023-03-20T11:00:19.912Z,100593.28
2023-03-20T11:02:46.964Z,100560.94
2023-03-20T11:05:29.614Z,100588.66
2023-03-20T11:08:13.066Z,100537.69
2023-03-20T11:10:41.608Z,100605.88
2023-03-20T11:13:20.522Z,100602.50
2023-03-20T11:15:47.233Z,100561.41
2023-03-20T11:18:16.453Z,100599.94
2023-03-20T11:20:56.338Z,100598.22
2023-03-20T11:23:31.604Z,100591.72
2023-03-20T11:26:06.933Z,100595.38
2023-03-20T11:28:42.273Z,100592.09
2023-03-20T11:31:12.009Z,100593.06
2023-03-20T11:33:42.647Z,100552.44
2023-03-20T11:36:28.264Z,100576.97
2023-03-20T11:39:02.357Z,100587.28
2023-03-20T11:41:29.349Z,100578.81
2023-03-20T11:43:56.181Z,100513.19
2023-03-20T11:46:25.078Z,100517.47
2023-03-20T11:49:16.862Z,100580.72
2023-03-20T11:51:43.583Z,100535.66
2023-03-20T11:54:20.885Z,100530.53
2023-03-20T11:56:59.184Z,100570.59
2023-03-20T11:59:35.340Z,100537.91
2023-03-20T12:02:04.632Z,100547.56
2023-03-20T12:04:37.586Z,100559.75
2023-03-20T12:07:36.763Z,100553.72
2023-03-20T12:10:11.596Z,100509.75
2023-03-20T12:12:45.897Z,100514.97
2023-03-20T12:15:25.012Z,100544.72
2023-03-20T12:18:01.040Z,100518.22
2023-03-20T12:20:27.720Z,100572.47
2023-03-20T12:23:11.243Z,100556.88
2023-03-20T12:25:44.490Z,100557.75
2023-03-20T12:28:26.537Z,100555.53
2023-03-20T12:31:05.198Z,100509.78
2023-03-20T12:33:41.532Z,100563.91
2023-03-20T12:36:25.386Z,100556.38
2023-03-20T12:38:52.171Z,100526.41
2023-03-20T12:41:25.682Z,100503.78
2023-03-20T12:43:52.372Z,100567.44
2023-03-20T12:46:31.039Z,100552.78
2023-03-20T12:49:33.172Z,100552.94
2023-03-20T12:52:02.822Z,100556.03
2023-03-20T12:54:47.614Z,100542.00
2023-03-20T12:57:37.308Z,100523.69
2023-03-20T13:00:33.530Z,100537.00
2023-03-20T13:03:18.930Z,100544.19
2023-03-20T13:06:03.242Z,100529.28
2023-03-20T13:08:43.446Z,100498.44
2023-03-20T13:11:25.034Z,100529.44
2023-03-20T13:13:58.948Z,100493.75
2023-03-20T13:16:40.856Z,100529.56
2023-03-20T13:19:14.006Z,100535.56
2023-03-20T13:21:50.622Z,100504.06
2023-03-20T13:24:23.300Z,100530.19
2023-03-20T13:27:31.453Z,100496.78
2023-03-20T13:30:21.562Z,100524.84
2023-03-20T13:33:10.716Z,100528.16
2023-03-20T13:35:47.130Z,100476.88
2023-03-20T13:38:27.532Z,100477.50
2023-03-20T13:41:02.619Z,100482.97
2023-03-20T13:43:33.090Z,100501.47
2023-03-20T13:46:07.927Z,100489.66
2023-03-20T13:48:37.729Z,100491.56
2023-03-20T13:51:16.549Z,100515.75
2023-03-20T13:54:00.765Z,100513.41
2023-03-20T13:56:40.932Z,100460.78
2023-03-20T13:59:13.748Z,100508.69
2023-03-20T14:02:11.554Z,100501.00
2023-03-20T14:04:39.282Z,100465.59
2023-03-20T14:07:39.082Z,100484.81
2023-03-20T14:10:21.054Z,100495.13
2023-03-20T14:13:02.151Z,100488.72
2023-03-20T14:15:34.111Z,100452.03
2023-03-20T14:18:05.750Z,100475.38
2023-03-20T14:20:40.771Z,100459.06
2023-03-20T14:23:20.791Z,100429.09
2023-03-20T14:25:50.256Z,100462.69
2023-03-20T14:28:20.826Z,100466.81
2023-03-20T14:30:51.952Z,100433.63
2023-03-20T14:33:20.037Z,100453.00
2023-03-20T14:36:11.261Z,100405.19
2023-03-20T14:39:10.875Z,100449.94
2023-03-20T14:41:42.506Z,100458.97
2023-03-20T14:44:09.203Z,100450.34
2023-03-20T14:46:47.784Z,100453.38
2023-03-20T14:49:52.833Z,100453.47
2023-03-20T14:52:40.687Z,100449.31
2023-03-20T14:55:19.495Z,100452.78
2023-03-20T14:57:56.085Z,100406.81
2023-03-20T15:00:25.903Z,100445.81
2023-03-20T15:03:10.754Z,100397.81
2023-03-20T15:05:39.791Z,100401.84
2023-03-20T15:08:08.682Z,100434.44
2023-03-20T15:10:38.648Z,100427.88
2023-03-20T15:13:08.156Z,100407.19
2023-03-20T15:15:34.829Z,100399.22
2023-03-20T15:18:14.556Z,100386.47
2023-03-20T15:20:44.737Z,100411.06
2023-03-20T15:23:11.489Z,100384.19
2023-03-20T15:25:46.296Z,100353.69
2023-03-20T15:28:19.300Z,100382.28
2023-03-20T15:30:49.049Z,100369.25
2023-03-20T15:33:39.526Z,100396.47
2023-03-20T15:36:16.077Z,100376.78
2023-03-20T15:38:44.812Z,100340.81
2023-03-20T15:41:48.386Z,100403.09
2023-03-20T15:44:15.042Z,100390.09
2023-03-20T15:46:50.939Z,100348.00
2023-03-20T15:49:19.013Z,100328.94
2023-03-20T15:51:46.845Z,100304.34
2023-03-20T15:54:16.720Z,100316.50
2023-03-20T15:56:48.749Z,100383.53
2023-03-20T15:59:18.050Z,100350.44
2023-03-20T16:01:47.666Z,100335.72
2023-03-20T16:04:17.217Z,100312.63
2023-03-20T16:06:58.195Z,100356.25
2023-03-20T16:09:25.671Z,100379.22
2023-03-20T16:12:03.410Z,100352.84
2023-03-20T16:14:36.580Z,100379.22
2023-03-20T16:17:04.265Z,100367.97
2023-03-20T16:19:34.227Z,100322.03
2023-03-20T16:22:16.433Z,100376.59
2023-03-20T16:24:50.561Z,100366.56
2023-03-20T16:27:27.753Z,100347.63
2023-03-20T16:29:58.624Z,100332.47
2023-03-20T16:32:33.256Z,100329.09
2023-03-20T16:35:02.832Z,100306.75
2023-03-20T16:37:32.250Z,100323.53
2023-03-20T16:40:04.037Z,100343.00
2023-03-20T16:42:30.988Z,100313.16
2023-03-20T16:45:06.863Z,100298.03
2023-03-20T16:47:38.305Z,100313.56
2023-03-20T16:50:22.310Z,100349.91
2023-03-20T16:53:01.803Z,100303.53
2023-03-20T16:55:32.113Z,100315.75
2023-03-20T16:58:03.683Z,100299.53
2023-03-20T17:00:33.711Z,100349.66
2023-03-20T17:03:15.548Z,100333.06
2023-03-20T17:05:50.630Z,100298.88
2023-03-20T17:08:46.697Z,100296.81
2023-03-20T17:11:24.204Z,100317.78
2023-03-20T17:13:53.485Z,100293.63
2023-03-20T17:16:22.687Z,100302.69
2023-03-20T17:19:00.251Z,100318.41
2023-03-20T17:21:27.811Z,100295.63
2023-03-20T17:24:00.304Z,100266.06
2023-03-20T17:26:27.250Z,100288.50
2023-03-20T17:29:03.801Z,100276.13
2023-03-20T17:31:31.877Z,100260.03
2023-03-20T17:34:01.445Z,100273.41
2023-03-20T17:36:34.763Z,100227.78
2023-03-20T17:39:04.611Z,100316.28
2023-03-20T17:41:32.008Z,100290.34
2023-03-20T17:43:58.765Z,100214.19
2023-03-20T17:46:31.557Z,100310.53
2023-03-20T17:49:02.525Z,100271.56
2023-03-20T17:51:29.677Z,100258.19
2023-03-20T17:53:58.054Z,100267.91
2023-03-20T17:56:32.821Z,100295.03
2023-03-20T17:59:03.392Z,100260.91
2023-03-20T18:01:32.562Z,100316.38
2023-03-20T18:03:59.589Z,100271.63
2023-03-20T18:06:31.337Z,100309.38
2023-03-20T18:09:01.663Z,100243.66
2023-03-20T18:11:29.248Z,100304.56
2023-03-20T18:13:56.089Z,100263.72
2023-03-20T18:16:26.914Z,100285.59
2023-03-20T18:18:57.108Z,100202.69
2023-03-20T18:21:23.822Z,100197.69
2023-03-20T18:23:50.760Z,100257.69
2023-03-20T18:26:21.043Z,100248.81
2023-03-20T18:28:49.298Z,100288.38
2023-03-20T18:31:19.202Z,100221.22
2023-03-20T18:33:51.456Z,100300.81
2023-03-20T18:36:23.077Z,100282.00
2023-03-20T18:38:50.809Z,100264.03
2023-03-20T18:41:17.905Z,100255.47
2023-03-20T18:43:46.605Z,100250.31
2023-03-20T18:46:18.093Z,100233.13
2023-03-20T18:48:45.984Z,100250.63
2023-03-20T18:51:13.624Z,100212.38
2023-03-20T18:53:43.112Z,100235.38
2023-03-20T18:56:12.932Z,100250.28
2023-03-20T18:58:39.591Z,100162.63
2023-03-20T19:01:06.407Z,100234.81
2023-03-20T19:03:39.354Z,100219.63
2023-03-20T19:06:10.673Z,100188.03
2023-03-20T19:08:38.900Z,100176.34
2023-03-20T19:11:06.082Z,100205.44
2023-03-20T19:13:32.809Z,100236.84
2023-03-20T19:15:59.679Z,100201.53
2023-03-20T19:18:27.194Z,100189.19
2023-03-20T19:20:56.125Z,100218.84
2023-03-20T19:23:26.048Z,100170.44
2023-03-20T19:25:55.013Z,100202.13
2023-03-20T19:28:37.768Z,100199.69
2023-03-20T19:31:07.003Z,100145.28
2023-03-20T19:33:34.263Z,100126.25
2023-03-20T19:36:03.618Z,100171.53
2023-03-20T19:38:38.567Z,100141.47
2023-03-20T19:41:05.457Z,100126.94
2023-03-20T19:43:32.377Z,100205.84
2023-03-20T19:45:59.653Z,100127.50
2023-03-20T19:48:46.381Z,100183.41
2023-03-20T19:51:22.265Z,100181.81
2023-03-20T19:53:50.128Z,100144.09
2023-03-20T19:56:20.657Z,100142.25
2023-03-20T19:58:48.068Z,100136.19
2023-03-20T20:01:18.050Z,100097.19
2023-03-20T20:03:45.745Z,100134.06
2023-03-20T20:06:12.592Z,100134.75
2023-03-20T20:08:47.881Z,100108.16
2023-03-20T20:11:15.646Z,100123.31
2023-03-20T20:14:04.279Z,100122.88
2023-03-20T20:16:29.758Z,100078.50
2023-03-20T20:18:56.634Z,100121.44
2023-03-20T20:24:10.280Z,100105.81
2023-03-20T20:26:44.917Z,100086.13
2023-03-20T20:29:16.156Z,100118.28
2023-03-20T20:31:43.996Z,100119.13
2023-03-20T20:39:45.579Z,100115.16
2023-03-20T20:42:12.615Z,100077.06
2023-03-20T20:44:40.619Z,100088.25
2023-03-20T20:47:08.041Z,100074.81
2023-03-20T20:49:34.903Z,100110.56
2023-03-20T20:52:01.795Z,100120.56
2023-03-20T20:54:29.054Z,100110.13
2023-03-20T20:56:56.218Z,100049.06
2023-03-20T20:59:23.129Z,100093.91
2023-03-20T21:01:50.719Z,100101.50
2023-03-20T21:04:17.917Z,100102.50
2023-03-20T21:07:07.509Z,100030.78
2023-03-20T21:09:31.745Z,100065.47
2023-03-20T21:11:58.493Z,100029.47
2023-03-20T21:14:25.442Z,100055.72
2023-03-20T21:16:52.175Z,100036.41
2023-03-20T21:19:19.463Z,100049.38
2023-03-20T21:21:46.193Z,100058.84
2023-03-20T21:24:31.111Z,100050.56
2023-03-20T21:26:59.886Z,100061.09
2023-03-20T21:29:26.856Z,100052.44
2023-03-20T21:31:53.984Z,100077.75
2023-03-20T21:34:20.907Z,100064.78
2023-03-20T21:36:49.105Z,99995.75
2023-03-20T21:39:17.477Z,100021.50
2023-03-20T21:41:45.031Z,100023.91
2023-03-20T21:44:17.788Z,100049.25
2023-03-20T21:58:44.420Z,100009.25
2023-03-20T22:01:36.663Z,99996.38
2023-03-20T22:04:10.490Z,100009.63
2023-03-20T22:17:59.877Z,99980.31
2023-03-20T22:21:02.017Z,99989.53
2023-03-20T22:32:11.048Z,99947.38
2023-03-20T22:34:54.412Z,99981.94
2023-03-20T22:40:39.360Z,99938.66
2023-03-20T22:43:52.065Z,99926.00
2023-03-20T22:45:34.422Z,99931.91
2023-03-20T22:48:09.494Z,99951.78
2023-03-20T22:50:37.223Z,99911.28
2023-03-20T22:53:04.004Z,99885.59
2023-03-20T22:55:30.728Z,99928.06
2023-03-20T22:58:06.962Z,99939.66
2023-03-20T23:00:36.134Z,99890.53
2023-03-20T23:03:19.565Z,99903.09
2023-03-20T23:05:50.595Z,99911.72
2023-03-20T23:08:18.050Z,99859.09
2023-03-20T23:10:48.512Z,99922.63
2023-03-20T23:13:16.690Z,99883.41
2023-03-20T23:15:46.742Z,99917.78
2023-03-20T23:18:14.358Z,99894.81
2023-03-20T23:20:41.504Z,99863.78
2023-03-20T23:23:09.060Z,99888.47
2023-03-20T23:25:39.637Z,99876.25
2023-03-20T23:28:10.461Z,99842.41
2023-03-20T23:30:46.767Z,99876.91
2023-03-20T23:33:16.654Z,99872.03
2023-03-20T23:35:43.408Z,99810.25
2023-03-20T23:38:10.486Z,99841.25
2023-03-20T23:40:37.823Z,99804.72
2023-03-20T23:43:04.752Z,99801.34
2023-03-20T23:45:31.574Z,99802.16
2023-03-20T23:47:58.330Z,99808.09
2023-03-20T23:50:39.529Z,99828.72
2023-03-20T23:53:19.972Z,99835.59
2023-03-20T23:55:49.466Z,99832.88
2023-03-20T23:58:16.566Z,99757.81
